Time;durP1;ratioP1;P1;durP2;ratioP2;P2;SDS_P1;SDS_P2;PMS_P1;PMS_P2;Temp;Humidity;BMP_temperature;BMP_pressure;BME280_temperature;BME280_humidity;BME280_pressure;Samples;Min_cycle;Max_cycle;Signal;HPM_P1;HPM_P2
2021/12/26 03:39:58;;;;;;;24.77;13.65;;;4.10;99.90;;;;;;5060324;22;20251;-82
2021/12/26 03:42:25;;;;;;;52.88;16.95;;;4.00;99.90;;;;;;5038049;28;20252;-82
2021/12/26 03:44:52;;;;;;;33.50;18.35;;;4.00;99.90;;;;;;5038456;28;20213;-82
2021/12/26 03:47:20;;;;;;;38.75;17.02;;;4.10;99.90;;;;;;5038016;28;20256;-83
2021/12/26 03:49:48;;;;;;;59.15;23.35;;;4.10;99.90;;;;;;5037654;28;20746;-82
2021/12/26 03:52:14;;;;;;;37.92;16.25;;;4.10;99.90;;;;;;5037415;28;20283;-84
2021/12/26 03:54:41;;;;;;;38.78;22.83;;;4.10;99.90;;;;;;5037921;28;20552;-83
2021/12/26 03:57:09;;;;;;;46.40;19.88;;;4.20;99.90;;;;;;5037671;28;20209;-82
2021/12/26 03:59:36;;;;;;;45.65;19.63;;;4.20;99.90;;;;;;5038026;28;20561;-82
2021/12/26 04:02:03;;;;;;;39.90;16.80;;;4.20;99.90;;;;;;5037947;28;20210;-83
2021/12/26 04:04:30;;;;;;;27.33;17.52;;;4.30;99.90;;;;;;5038254;28;20268;-82
2021/12/26 04:06:56;;;;;;;33.80;19.48;;;4.20;99.90;;;;;;5037386;28;20214;-83
2021/12/26 04:09:23;;;;;;;33.88;18.63;;;4.30;99.90;;;;;;5037247;28;20227;-83
2021/12/26 04:11:50;;;;;;;30.65;18.52;;;4.40;99.90;;;;;;5036953;28;20248;-83
2021/12/26 04:14:18;;;;;;;30.83;15.95;;;4.40;99.90;;;;;;5037250;28;20270;-84
2021/12/26 04:16:45;;;;;;;31.63;18.60;;;4.40;99.90;;;;;;5037755;28;20209;-83
2021/12/26 04:19:12;;;;;;;36.85;19.33;;;4.30;99.90;;;;;;5045324;28;20230;-82
2021/12/26 04:21:39;;;;;;;32.53;18.73;;;4.40;99.90;;;;;;5044689;28;20204;-84
2021/12/26 04:24:07;;;;;;;33.30;18.83;;;4.40;99.90;;;;;;5038159;28;20209;-83
2021/12/26 04:26:34;;;;;;;31.27;18.60;;;4.40;99.90;;;;;;5036942;28;20209;-83
2021/12/26 04:29:01;;;;;;;26.10;18.40;;;4.30;99.90;;;;;;5036628;28;20225;-83
2021/12/26 04:31:29;;;;;;;27.92;15.75;;;4.40;99.90;;;;;;5036864;28;20229;-83
2021/12/26 04:33:56;;;;;;;30.83;17.55;;;4.40;99.90;;;;;;5036626;28;20276;-83
2021/12/26 04:36:22;;;;;;;38.03;16.92;;;4.40;99.90;;;;;;5036980;28;20208;-82
2021/12/26 04:38:49;;;;;;;34.03;15.85;;;4.50;99.90;;;;;;5036284;28;20271;-82
2021/12/26 04:41:16;;;;;;;26.80;17.55;;;4.60;99.90;;;;;;5036812;28;20194;-82
2021/12/26 04:43:43;;;;;;;28.58;16.33;;;4.60;99.90;;;;;;5035972;28;20262;-83
2021/12/26 04:46:10;;;;;;;37.08;19.70;;;4.50;99.90;;;;;;5036629;28;20217;-84
2021/12/26 04:48:41;;;;;;;34.08;18.10;;;4.60;99.90;;;;;;5036319;28;20550;-83
2021/12/26 04:51:10;;;;;;;30.65;16.60;;;4.60;99.90;;;;;;5037036;28;20218;-82
2021/12/26 04:53:38;;;;;;;24.23;16.45;;;4.70;99.90;;;;;;5044002;28;20213;-82
2021/12/26 04:56:06;;;;;;;35.78;19.90;;;4.70;99.90;;;;;;5044441;28;20210;-81
2021/12/26 04:58:33;;;;;;;26.95;15.85;;;4.80;99.90;;;;;;5035890;28;20218;-83
2021/12/26 05:01:00;;;;;;;23.52;14.90;;;4.80;99.90;;;;;;5035990;28;20202;-83
2021/12/26 05:03:27;;;;;;;23.35;16.50;;;4.90;99.90;;;;;;5036432;28;20202;-83
2021/12/26 05:05:55;;;;;;;24.85;15.48;;;5.10;99.90;;;;;;5036521;28;20206;-83
2021/12/26 05:08:22;;;;;;;27.70;15.40;;;5.20;99.90;;;;;;5035797;28;20241;-83
2021/12/26 05:10:48;;;;;;;27.60;18.55;;;5.20;99.90;;;;;;5035940;28;20206;-83
2021/12/26 05:13:15;;;;;;;24.55;14.15;;;5.20;99.90;;;;;;5035896;28;20214;-83
2021/12/26 05:15:43;;;;;;;23.90;14.85;;;5.30;99.90;;;;;;5036138;28;20198;-83
2021/12/26 05:18:10;;;;;;;20.58;13.30;;;5.40;99.90;;;;;;5035319;28;20217;-83
2021/12/26 05:20:37;;;;;;;25.35;14.48;;;5.40;99.90;;;;;;5035908;28;20625;-83
2021/12/26 05:23:05;;;;;;;21.38;13.60;;;5.50;99.90;;;;;;5036355;28;20210;-83
2021/12/26 05:25:32;;;;;;;23.75;13.00;;;5.60;99.90;;;;;;5035920;28;20672;-83
2021/12/26 05:27:58;;;;;;;24.95;14.95;;;5.70;99.90;;;;;;5035991;28;20280;-82
2021/12/26 05:30:27;;;;;;;24.40;14.85;;;5.70;99.90;;;;;;5035469;28;20739;-83
2021/12/26 05:32:54;;;;;;;24.23;14.07;;;5.60;99.90;;;;;;5035669;28;20284;-82
2021/12/26 05:35:20;;;;;;;24.98;14.93;;;5.60;99.90;;;;;;5035589;28;20835;-82
2021/12/26 05:37:48;;;;;;;26.30;13.52;;;5.50;99.90;;;;;;5035728;28;20207;-83
2021/12/26 05:40:17;;;;;;;18.65;13.60;;;5.40;99.90;;;;;;5035369;28;20253;-83
2021/12/26 05:42:44;;;;;;;27.67;15.05;;;5.50;99.90;;;;;;5035835;28;20273;-83
2021/12/26 05:45:13;;;;;;;24.30;16.13;;;5.60;99.90;;;;;;5035218;28;20207;-84
2021/12/26 05:47:39;;;;;;;23.40;14.73;;;5.70;99.90;;;;;;5035578;28;20261;-83
2021/12/26 05:50:08;;;;;;;21.25;13.98;;;5.50;99.90;;;;;;5035277;28;20230;-83
2021/12/26 05:52:35;;;;;;;21.67;13.75;;;5.50;99.90;;;;;;5035689;28;20577;-83
2021/12/26 05:55:02;;;;;;;21.38;14.57;;;5.60;99.90;;;;;;5034455;28;20210;-83
2021/12/26 05:57:30;;;;;;;22.63;14.50;;;5.60;99.90;;;;;;5034960;28;20256;-82
2021/12/26 05:59:57;;;;;;;18.58;12.88;;;5.70;99.90;;;;;;5035460;28;20280;-82
2021/12/26 06:02:23;;;;;;;27.42;14.20;;;5.70;99.90;;;;;;5034941;28;20199;-83
2021/12/26 06:04:50;;;;;;;21.25;15.43;;;5.80;99.90;;;;;;5034830;28;20301;-83
2021/12/26 06:07:17;;;;;;;22.98;15.13;;;5.70;99.90;;;;;;5035188;28;20263;-83
2021/12/26 06:09:44;;;;;;;30.98;14.70;;;5.80;99.90;;;;;;5034692;28;20260;-83
2021/12/26 06:12:11;;;;;;;39.20;16.30;;;5.80;99.90;;;;;;5034519;28;20233;-83
2021/12/26 06:14:39;;;;;;;38.63;15.43;;;5.80;99.90;;;;;;5035147;28;20203;-84
2021/12/26 06:17:06;;;;;;;29.42;13.10;;;5.80;99.90;;;;;;5034342;28;20267;-84
2021/12/26 06:19:33;;;;;;;30.20;13.85;;;5.80;99.90;;;;;;5034874;28;20628;-83
2021/12/26 06:21:59;;;;;;;22.08;14.75;;;5.80;99.90;;;;;;5034341;28;20216;-83
2021/12/26 06:24:26;;;;;;;24.55;15.70;;;5.80;99.90;;;;;;5034324;28;20679;-84
2021/12/26 06:26:53;;;;;;;26.92;12.85;;;5.80;99.90;;;;;;5034219;28;20549;-83
2021/12/26 06:29:20;;;;;;;20.05;13.02;;;5.90;99.90;;;;;;5034444;28;20301;-83
2021/12/26 06:31:48;;;;;;;20.33;12.50;;;5.90;99.90;;;;;;5033886;28;20222;-83
2021/12/26 06:34:15;;;;;;;20.63;12.57;;;5.90;99.90;;;;;;5034229;28;20221;-83
2021/12/26 06:36:41;;;;;;;22.38;12.93;;;5.90;99.90;;;;;;5034665;28;20205;-83
2021/12/26 06:39:08;;;;;;;17.63;12.48;;;5.90;99.90;;;;;;5034233;28;20237;-83
2021/12/26 06:41:38;;;;;;;18.58;12.43;;;5.90;99.90;;;;;;5034389;28;20206;-83
2021/12/26 06:44:07;;;;;;;23.73;15.55;;;5.90;99.90;;;;;;5034282;28;20202;-83
2021/12/26 06:46:35;;;;;;;20.13;12.73;;;6.00;99.90;;;;;;5022011;28;20207;-82
2021/12/26 06:49:04;;;;;;;20.63;12.57;;;6.00;99.90;;;;;;5041469;28;20611;-82
2021/12/26 06:51:31;;;;;;;16.70;11.43;;;6.00;99.90;;;;;;5040942;28;20324;-85
2021/12/26 06:53:57;;;;;;;19.35;12.50;;;6.00;99.90;;;;;;5031556;28;20203;-83
2021/12/26 06:56:24;;;;;;;17.42;13.98;;;6.10;99.90;;;;;;5018055;28;20202;-83
2021/12/26 06:58:51;;;;;;;22.13;12.77;;;6.10;99.90;;;;;;5032947;28;20218;-83
2021/12/26 07:01:18;;;;;;;16.63;11.27;;;6.10;99.90;;;;;;5033785;28;20206;-83
2021/12/26 07:03:46;;;;;;;19.70;12.82;;;6.10;99.90;;;;;;5034381;28;21188;-82
2021/12/26 07:06:14;;;;;;;21.48;12.55;;;6.10;99.90;;;;;;5033822;28;20195;-83
2021/12/26 07:08:40;;;;;;;22.13;13.13;;;6.10;99.90;;;;;;5034230;28;20257;-82
2021/12/26 07:11:07;;;;;;;16.73;11.32;;;6.10;99.90;;;;;;5034156;28;20240;-84
2021/12/26 07:13:34;;;;;;;20.38;11.45;;;6.10;99.90;;;;;;5038722;28;20272;-82
2021/12/26 07:16:00;;;;;;;17.23;11.18;;;6.10;99.90;;;;;;5047209;28;20233;-82
2021/12/26 07:18:27;;;;;;;21.48;12.23;;;6.10;99.90;;;;;;5043806;28;20210;-83
2021/12/26 07:20:54;;;;;;;14.45;10.70;;;6.10;99.90;;;;;;5034883;28;20256;-83
2021/12/26 07:23:22;;;;;;;20.20;12.18;;;6.10;99.90;;;;;;5033929;28;20202;-83
2021/12/26 07:25:49;;;;;;;19.95;12.25;;;6.10;99.90;;;;;;5040881;28;20217;-82
2021/12/26 07:28:15;;;;;;;20.90;12.00;;;6.10;99.90;;;;;;5047537;28;20202;-84
2021/12/26 07:30:42;;;;;;;23.10;13.82;;;6.10;99.90;;;;;;5046535;28;20242;-84
2021/12/26 07:33:09;;;;;;;14.90;11.50;;;6.00;99.90;;;;;;5034880;28;20222;-83
2021/12/26 07:35:36;;;;;;;15.93;11.57;;;6.00;99.90;;;;;;5033598;28;20206;-84
2021/12/26 07:38:02;;;;;;;20.25;12.23;;;5.90;99.90;;;;;;5050349;28;20190;-84
2021/12/26 07:40:30;;;;;;;20.17;12.77;;;5.90;99.90;;;;;;5054745;28;20234;-82
2021/12/26 07:42:57;;;;;;;20.52;13.15;;;5.90;99.90;;;;;;5043742;28;20195;-84
2021/12/26 07:45:24;;;;;;;21.05;12.95;;;5.90;99.90;;;;;;5033634;28;20210;-82
2021/12/26 07:47:51;;;;;;;22.85;13.73;;;5.90;99.90;;;;;;5033320;28;20207;-84
2021/12/26 07:50:18;;;;;;;24.95;15.88;;;6.00;99.90;;;;;;5032180;28;20645;-84
2021/12/26 07:52:46;;;;;;;19.75;13.07;;;6.00;99.90;;;;;;5031867;28;20629;-83
2021/12/26 07:55:13;;;;;;;29.10;15.70;;;6.00;99.90;;;;;;5031727;28;20218;-84
2021/12/26 07:57:44;;;;;;;22.13;17.27;;;6.10;99.90;;;;;;5031809;28;20210;-84
2021/12/26 08:00:12;;;;;;;20.13;13.02;;;6.20;99.90;;;;;;5033068;28;20655;-83
2021/12/26 08:02:39;;;;;;;20.73;12.77;;;6.30;99.90;;;;;;5031429;28;20623;-83
2021/12/26 08:05:06;;;;;;;20.38;14.10;;;6.40;99.90;;;;;;5031692;28;20241;-83
2021/12/26 08:07:34;;;;;;;22.02;14.25;;;6.40;99.90;;;;;;5031753;28;20206;-83
2021/12/26 08:10:00;;;;;;;20.45;12.88;;;6.50;99.90;;;;;;5031694;28;20228;-84
2021/12/26 08:12:27;;;;;;;15.88;11.63;;;6.50;99.90;;;;;;5031324;28;20269;-83
2021/12/26 08:14:55;;;;;;;14.43;12.27;;;6.60;99.90;;;;;;5031413;28;20283;-83
2021/12/26 08:17:23;;;;;;;18.23;12.07;;;6.60;99.90;;;;;;5032177;28;20213;-84
2021/12/26 08:19:50;;;;;;;21.60;12.93;;;6.60;99.90;;;;;;5035376;28;20234;-83
2021/12/26 08:22:17;;;;;;;16.42;12.40;;;6.60;99.90;;;;;;5035054;28;20198;-82
2021/12/26 08:24:43;;;;;;;17.77;11.43;;;6.60;99.90;;;;;;5035235;28;20552;-84
2021/12/26 08:27:10;;;;;;;17.98;10.88;;;6.50;99.90;;;;;;5035277;28;20202;-83
2021/12/26 08:29:37;;;;;;;18.90;13.18;;;6.50;99.90;;;;;;5034998;28;20893;-84
2021/12/26 08:32:07;;;;;;;14.23;10.50;;;6.40;99.90;;;;;;5034919;28;20222;-83
2021/12/26 08:34:33;;;;;;;13.02;10.05;;;6.40;99.90;;;;;;5035177;28;20610;-84
2021/12/26 08:37:01;;;;;;;13.27;11.15;;;6.50;99.90;;;;;;5035168;28;20206;-84
2021/12/26 08:39:29;;;;;;;14.25;11.13;;;6.50;99.90;;;;;;5034983;28;20230;-84
2021/12/26 08:41:56;;;;;;;13.95;12.27;;;6.50;99.90;;;;;;5045864;28;20194;-84
2021/12/26 08:44:23;;;;;;;16.27;11.10;;;6.50;99.90;;;;;;5054158;28;20216;-83
2021/12/26 08:46:51;;;;;;;15.07;12.00;;;6.50;99.90;;;;;;5047768;28;20207;-83
2021/12/26 08:49:20;;;;;;;13.15;11.35;;;6.50;99.90;;;;;;5044111;28;20226;-83
2021/12/26 08:51:48;;;;;;;14.35;11.20;;;6.50;99.90;;;;;;5042459;28;20203;-83
2021/12/26 08:54:15;;;;;;;14.60;11.30;;;6.60;99.90;;;;;;5043588;28;20675;-84
2021/12/26 08:56:42;;;;;;;14.73;10.75;;;6.60;99.90;;;;;;5043221;28;20261;-83
2021/12/26 08:59:10;;;;;;;14.25;10.15;;;6.60;99.90;;;;;;5043424;28;20284;-83
2021/12/26 09:01:38;;;;;;;14.73;10.82;;;6.60;99.90;;;;;;5044370;28;20206;-83
2021/12/26 09:04:06;;;;;;;15.65;10.88;;;6.60;99.90;;;;;;5038820;28;20199;-84
2021/12/26 09:06:34;;;;;;;14.40;12.93;;;6.50;99.90;;;;;;5038714;28;20230;-83
2021/12/26 09:09:00;;;;;;;14.70;9.95;;;6.50;99.90;;;;;;5037996;28;20272;-84
2021/12/26 09:11:27;;;;;;;13.25;10.57;;;6.50;99.90;;;;;;5039292;28;20210;-84
2021/12/26 09:13:54;;;;;;;15.02;11.35;;;6.50;99.90;;;;;;5039160;28;20225;-83
2021/12/26 09:16:20;;;;;;;14.23;11.48;;;6.50;99.90;;;;;;5038930;28;20217;-83
2021/12/26 09:18:47;;;;;;;12.85;11.45;;;6.60;99.90;;;;;;5039268;28;20234;-83
2021/12/26 09:21:14;;;;;;;13.85;11.43;;;6.60;99.90;;;;;;5040440;28;20778;-84
2021/12/26 09:23:45;;;;;;;13.10;10.43;;;6.70;99.90;;;;;;5039635;28;20203;-83
2021/12/26 09:26:12;;;;;;;15.05;12.20;;;6.70;99.90;;;;;;5042827;28;20209;-83
2021/12/26 09:28:39;;;;;;;14.45;11.98;;;6.80;99.90;;;;;;5044349;28;20214;-83
2021/12/26 09:31:06;;;;;;;14.02;10.00;;;6.80;99.90;;;;;;5042004;28;20199;-83
2021/12/26 09:33:33;;;;;;;11.82;10.63;;;6.90;99.90;;;;;;5041719;28;20229;-83
2021/12/26 09:36:00;;;;;;;13.23;11.35;;;6.90;99.90;;;;;;5039905;28;20207;-83
2021/12/26 09:38:28;;;;;;;16.73;12.50;;;7.00;99.90;;;;;;5037809;28;20207;-82
2021/12/26 09:41:01;;;;;;;12.00;9.80;;;7.00;99.90;;;;;;5081214;23;20241;-86
2021/12/26 09:43:35;;;;;;;14.57;12.07;;;7.10;99.90;;;;;;5060500;28;20209;-86
2021/12/26 09:46:45;;;;;;;12.68;10.00;;;7.20;99.90;;;;;;5061649;28;20197;-86
2021/12/26 09:49:24;;;;;;;12.65;10.90;;;7.30;99.90;;;;;;5039693;28;20667;-86
2021/12/26 09:55:05;;;;;;;13.57;11.43;;;7.40;99.90;;;;;;5056401;28;20205;-85
2021/12/26 09:57:35;;;;;;;15.48;11.57;;;7.40;99.90;;;;;;5064004;28;20281;-86
2021/12/26 10:00:16;;;;;;;13.00;9.80;;;7.50;99.90;;;;;;5063670;28;20209;-85
2021/12/26 10:02:43;;;;;;;12.57;10.88;;;7.50;99.90;;;;;;5063045;28;20194;-86
2021/12/26 10:05:10;;;;;;;10.45;9.07;;;7.50;99.90;;;;;;5061428;28;20777;-86
2021/12/26 10:07:36;;;;;;;13.02;9.65;;;7.50;99.90;;;;;;5062241;28;20210;-86
2021/12/26 10:10:06;;;;;;;12.13;10.82;;;7.50;99.90;;;;;;5061225;28;20726;-84
2021/12/26 10:12:48;;;;;;;12.38;10.38;;;7.50;99.90;;;;;;5059509;28;20248;-85
2021/12/26 10:15:15;;;;;;;10.32;9.07;;;7.60;99.90;;;;;;5059958;28;20655;-86
2021/12/26 10:17:42;;;;;;;13.60;11.43;;;7.70;99.90;;;;;;5058016;28;20205;-86
2021/12/26 10:20:11;;;;;;;12.15;9.77;;;7.80;99.90;;;;;;5059980;28;20237;-85
2021/12/26 10:22:38;;;;;;;15.40;10.48;;;8.00;99.90;;;;;;5068630;28;20224;-85
2021/12/26 10:25:15;;;;;;;12.45;10.80;;;8.10;99.90;;;;;;5068211;28;20202;-85
2021/12/26 10:27:45;;;;;;;11.48;9.07;;;8.20;99.90;;;;;;5069207;28;20741;-85
2021/12/26 10:30:17;;;;;;;11.23;9.95;;;8.40;99.90;;;;;;5070004;28;20711;-85
2021/12/26 10:32:44;;;;;;;11.45;9.20;;;8.50;99.90;;;;;;5069794;28;20296;-86
2021/12/26 10:35:13;;;;;;;10.05;9.00;;;8.70;99.90;;;;;;5069199;28;20199;-85
2021/12/26 10:37:42;;;;;;;10.73;9.65;;;8.80;99.90;;;;;;5061913;28;20198;-85
2021/12/26 10:40:18;;;;;;;10.80;9.02;;;8.90;99.90;;;;;;5061095;28;20233;-85
2021/12/26 10:42:49;;;;;;;10.38;9.13;;;9.00;99.90;;;;;;5069821;28;20210;-85
2021/12/26 10:45:18;;;;;;;12.35;9.63;;;9.00;99.90;;;;;;5063811;28;20205;-85
2021/12/26 10:47:46;;;;;;;12.75;11.40;;;9.00;99.90;;;;;;5064340;28;20210;-85
2021/12/26 10:50:15;;;;;;;15.15;10.45;;;9.00;99.90;;;;;;5064104;28;20234;-85
2021/12/26 10:52:50;;;;;;;10.43;9.27;;;8.90;99.90;;;;;;5062629;28;20205;-84
2021/12/26 10:55:19;;;;;;;11.52;10.50;;;9.00;99.90;;;;;;5061728;28;20201;-85
2021/12/26 10:57:49;;;;;;;11.93;10.32;;;9.00;99.90;;;;;;5061901;28;20202;-85
2021/12/26 11:00:19;;;;;;;13.57;12.02;;;8.90;99.90;;;;;;5060367;28;20218;-86
2021/12/26 11:02:49;;;;;;;13.15;11.52;;;8.90;99.90;;;;;;5061549;28;20206;-85
2021/12/26 11:05:18;;;;;;;12.25;9.98;;;9.00;99.90;;;;;;5060401;28;20202;-85
2021/12/26 11:07:49;;;;;;;11.90;10.52;;;8.90;99.90;;;;;;5058097;28;20208;-85
2021/12/26 11:10:19;;;;;;;12.35;10.20;;;9.00;99.90;;;;;;5058980;28;20218;-84
2021/12/26 11:12:50;;;;;;;12.10;10.90;;;8.90;99.90;;;;;;5059611;28;20675;-85
2021/12/26 11:15:18;;;;;;;11.57;10.38;;;8.90;99.90;;;;;;5059961;28;20609;-84
2021/12/26 11:17:49;;;;;;;12.40;9.93;;;9.00;99.90;;;;;;5059923;28;20199;-85
2021/12/26 11:20:40;;;;;;;10.57;9.52;;;8.90;99.90;;;;;;5059943;28;20226;-85
2021/12/26 11:23:12;;;;;;;12.23;11.00;;;9.00;99.90;;;;;;5060108;28;20209;-85
2021/12/26 11:25:58;;;;;;;14.23;10.93;;;9.00;99.90;;;;;;5060275;28;20209;-85
2021/12/26 11:28:30;;;;;;;12.23;9.70;;;9.00;99.90;;;;;;5051948;28;20204;-85
2021/12/26 11:30:59;;;;;;;12.82;10.88;;;9.10;99.90;;;;;;5057308;28;20230;-85
2021/12/26 11:33:28;;;;;;;12.27;10.63;;;9.10;99.90;;;;;;5059783;28;20251;-85
2021/12/26 11:35:56;;;;;;;12.15;10.85;;;9.10;99.90;;;;;;5057733;28;20199;-85
2021/12/26 11:38:31;;;;;;;13.32;10.45;;;9.20;99.90;;;;;;5058586;28;20210;-85
2021/12/26 11:41:00;;;;;;;14.73;12.10;;;9.20;99.90;;;;;;5059643;28;20325;-85
2021/12/26 11:44:02;;;;;;;12.23;10.93;;;9.30;99.90;;;;;;5060121;28;20199;-85
2021/12/26 11:46:39;;;;;;;12.95;11.05;;;9.60;99.90;;;;;;5056212;28;20616;-84
2021/12/26 11:49:40;;;;;;;12.33;11.13;;;10.20;99.90;;;;;;5055075;28;20262;-83
2021/12/26 11:52:43;;;;;;;10.07;9.07;;;10.90;99.90;;;;;;5055947;28;20457;-85
2021/12/26 11:55:29;;;;;;;11.60;10.13;;;11.50;99.90;;;;;;5062910;28;20797;-85
2021/12/26 11:58:24;;;;;;;12.13;10.93;;;11.60;99.90;;;;;;5060838;28;20457;-84
2021/12/26 12:00:54;;;;;;;12.00;10.70;;;11.60;99.90;;;;;;5060538;28;20559;-85
2021/12/26 12:03:24;;;;;;;11.47;9.90;;;11.70;99.90;;;;;;5061105;28;20455;-85
2021/12/26 12:05:52;;;;;;;13.73;11.20;;;11.50;99.90;;;;;;5060860;28;20450;-85
2021/12/26 12:08:27;;;;;;;13.40;12.00;;;11.50;99.90;;;;;;5060223;28;20462;-84
2021/12/26 12:10:58;;;;;;;14.57;10.40;;;11.40;99.90;;;;;;5059391;28;20466;-85
2021/12/26 12:13:47;;;;;;;12.10;10.48;;;11.30;99.90;;;;;;5060888;28;20474;-85
2021/12/26 12:16:30;;;;;;;9.97;8.97;;;11.30;99.90;;;;;;5060858;28;20682;-85
2021/12/26 12:18:58;;;;;;;13.07;10.37;;;11.30;99.90;;;;;;5061094;28;20465;-84
2021/12/26 12:21:33;;;;;;;11.17;10.00;;;11.30;99.90;;;;;;5057459;28;20816;-84
2021/12/26 12:24:03;;;;;;;12.05;10.02;;;11.30;99.90;;;;;;5056710;28;20447;-85
2021/12/26 12:27:01;;;;;;;10.70;9.45;;;11.20;99.90;;;;;;5055086;28;20196;-85
2021/12/26 12:29:50;;;;;;;9.50;8.48;;;11.20;99.90;;;;;;5060534;28;20288;-83
2021/12/26 12:32:20;;;;;;;9.82;8.48;;;11.10;99.90;;;;;;5048080;28;20235;-82
2021/12/26 12:34:54;;;;;;;10.35;9.40;;;11.10;99.90;;;;;;5059994;28;20425;-83
2021/12/26 12:37:30;;;;;;;11.27;10.18;;;11.20;99.90;;;;;;5060619;28;20203;-83
2021/12/26 12:40:25;;;;;;;10.10;8.55;;;11.20;99.90;;;;;;5059953;28;20243;-83
2021/12/26 12:43:05;;;;;;;14.27;9.40;;;11.20;99.90;;;;;;5051246;28;20299;-82
2021/12/26 12:46:13;;;;;;;9.10;8.03;;;11.20;99.90;;;;;;5061055;28;20261;-82
2021/12/26 12:48:45;;;;;;;10.23;9.32;;;11.20;99.90;;;;;;5064621;28;20462;-82
2021/12/26 12:51:38;;;;;;;9.82;8.95;;;11.10;99.90;;;;;;5062761;28;20211;-82
2021/12/26 12:54:21;;;;;;;9.07;8.27;;;11.00;99.90;;;;;;5059609;28;20207;-82
2021/12/26 12:56:48;;;;;;;9.43;8.35;;;10.90;99.90;;;;;;5060719;28;20549;-83
2021/12/26 12:59:51;;;;;;;9.00;8.10;;;10.80;99.90;;;;;;5059814;28;20232;-83
2021/12/26 13:02:34;;;;;;;8.77;7.83;;;10.70;99.90;;;;;;5058954;28;20207;-83
2021/12/26 13:05:02;;;;;;;11.30;9.00;;;10.70;99.90;;;;;;5058941;28;20485;-83
2021/12/26 13:07:30;;;;;;;10.63;9.48;;;10.60;99.90;;;;;;5060234;28;20823;-82
2021/12/26 13:09:59;;;;;;;10.85;8.68;;;10.50;99.90;;;;;;5058733;28;20239;-83
2021/12/26 13:12:26;;;;;;;9.65;8.70;;;10.40;99.90;;;;;;5059663;28;20613;-83
2021/12/26 13:14:55;;;;;;;10.40;9.40;;;10.30;99.90;;;;;;5059536;28;20200;-83
2021/12/26 13:17:32;;;;;;;11.00;9.73;;;10.30;99.90;;;;;;5059203;28;20461;-83
2021/12/26 13:20:04;;;;;;;9.30;8.40;;;10.20;99.90;;;;;;5059067;28;20526;-82
2021/12/26 13:22:42;;;;;;;10.65;9.55;;;10.10;99.90;;;;;;5059149;28;20207;-83
2021/12/26 13:25:11;;;;;;;12.82;10.32;;;10.00;99.90;;;;;;5059359;28;20289;-82
2021/12/26 13:27:38;;;;;;;10.40;9.32;;;10.00;99.90;;;;;;5058917;28;20210;-82
2021/12/26 13:30:06;;;;;;;10.05;9.15;;;9.90;99.90;;;;;;5058773;28;20773;-82
2021/12/26 13:32:35;;;;;;;10.75;9.52;;;9.90;99.90;;;;;;5058936;28;20337;-82
2021/12/26 13:35:05;;;;;;;9.45;8.65;;;9.90;99.90;;;;;;5058974;28;20277;-82
2021/12/26 13:37:32;;;;;;;10.70;9.65;;;9.90;99.90;;;;;;5059074;28;20638;-83
2021/12/26 13:40:01;;;;;;;8.77;7.93;;;9.90;99.90;;;;;;5058992;28;20297;-83
2021/12/26 13:42:28;;;;;;;10.05;9.05;;;9.90;99.90;;;;;;5060790;28;20219;-83
2021/12/26 13:44:54;;;;;;;10.60;9.18;;;9.90;99.90;;;;;;5059613;28;20223;-83
2021/12/26 13:47:21;;;;;;;9.88;7.63;;;9.90;99.90;;;;;;5059603;28;20208;-83
2021/12/26 13:49:48;;;;;;;9.98;8.98;;;10.00;99.90;;;;;;5058962;28;20230;-83
2021/12/26 13:52:20;;;;;;;10.30;9.30;;;10.10;99.90;;;;;;5058847;28;20211;-83
2021/12/26 13:54:52;;;;;;;10.73;9.70;;;10.20;99.90;;;;;;5058805;28;20465;-83
2021/12/26 13:57:22;;;;;;;8.98;8.18;;;10.20;99.90;;;;;;5058011;28;20652;-83
2021/12/26 13:59:53;;;;;;;9.02;8.23;;;10.20;99.90;;;;;;5058115;28;20590;-84
2021/12/26 14:02:23;;;;;;;12.15;8.95;;;10.20;99.90;;;;;;5057068;28;20199;-84
2021/12/26 14:04:56;;;;;;;9.90;8.90;;;10.20;99.90;;;;;;5057526;28;20231;-83
2021/12/26 14:07:27;;;;;;;8.90;8.00;;;10.20;99.90;;;;;;5056247;28;20202;-84
2021/12/26 14:09:57;;;;;;;11.30;9.07;;;10.10;99.90;;;;;;5055602;28;20220;-83
2021/12/26 14:12:30;;;;;;;10.23;8.97;;;10.00;99.90;;;;;;5055687;28;20226;-83
2021/12/26 14:15:21;;;;;;;9.45;8.60;;;10.00;99.90;;;;;;5056766;28;20453;-81
2021/12/26 14:18:11;;;;;;;9.25;8.38;;;9.90;99.90;;;;;;5038675;28;20215;-82
2021/12/26 14:20:47;;;;;;;11.48;9.77;;;9.80;99.90;;;;;;5043146;28;20223;-82
2021/12/26 14:23:18;;;;;;;11.95;10.85;;;9.70;99.90;;;;;;5058429;28;20683;-82
2021/12/26 14:25:45;;;;;;;11.80;10.65;;;9.60;99.90;;;;;;5058449;28;20218;-82
2021/12/26 14:28:14;;;;;;;13.07;10.95;;;9.60;99.90;;;;;;5057851;28;20202;-82
2021/12/26 14:30:41;;;;;;;12.75;11.43;;;9.50;99.90;;;;;;5057161;28;20714;-82
2021/12/26 14:33:08;;;;;;;11.15;9.20;;;9.40;99.90;;;;;;5058165;28;20218;-83
2021/12/26 14:35:34;;;;;;;11.07;9.90;;;9.30;99.90;;;;;;5058346;28;20674;-82
2021/12/26 14:38:13;;;;;;;11.82;10.23;;;9.20;99.90;;;;;;5058638;28;20209;-83
2021/12/26 14:40:56;;;;;;;11.57;10.48;;;9.10;99.90;;;;;;5057668;28;20233;-83
2021/12/26 14:43:23;;;;;;;12.77;10.35;;;9.10;99.90;;;;;;5057041;28;20202;-82
2021/12/26 14:45:55;;;;;;;13.25;10.35;;;9.00;99.90;;;;;;5056633;28;20628;-82
2021/12/26 14:48:31;;;;;;;11.32;9.80;;;9.00;99.90;;;;;;5056969;28;20206;-82
2021/12/26 14:51:09;;;;;;;11.45;10.32;;;9.00;99.90;;;;;;5056668;28;20221;-82
2021/12/26 14:53:36;;;;;;;11.05;9.95;;;9.00;99.90;;;;;;5058020;28;20213;-82
2021/12/26 14:56:07;;;;;;;9.63;8.63;;;8.90;99.90;;;;;;5056627;28;20232;-82
2021/12/26 14:58:44;;;;;;;10.85;9.85;;;8.90;99.90;;;;;;5057587;28;20237;-82
2021/12/26 15:01:25;;;;;;;10.95;9.95;;;8.90;99.90;;;;;;5056811;28;20229;-83
2021/12/26 15:03:52;;;;;;;11.95;9.95;;;8.90;99.90;;;;;;5053494;28;20199;-82
2021/12/26 15:06:19;;;;;;;11.13;10.13;;;8.90;99.90;;;;;;5055349;28;20576;-82
2021/12/26 15:08:46;;;;;;;9.70;8.70;;;8.90;99.90;;;;;;5056430;28;20201;-83
2021/12/26 15:11:14;;;;;;;10.90;9.50;;;8.90;99.90;;;;;;5056513;28;20201;-83
2021/12/26 15:13:41;;;;;;;10.95;9.70;;;8.90;99.90;;;;;;5056417;28;20550;-83
2021/12/26 15:16:09;;;;;;;11.00;9.88;;;8.90;99.90;;;;;;5057007;28;20204;-83
2021/12/26 15:18:35;;;;;;;11.75;10.63;;;8.90;99.90;;;;;;5058328;28;20217;-83
2021/12/26 15:24:53;;;;;;;10.45;9.40;;;8.90;99.90;;;;;;5096418;28;20574;-82
2021/12/26 15:27:30;;;;;;;12.63;9.98;;;8.90;99.90;;;;;;5088774;28;20202;-83
2021/12/26 15:29:57;;;;;;;11.55;10.45;;;8.90;99.90;;;;;;5065757;28;20228;-82
2021/12/26 15:32:24;;;;;;;11.80;10.60;;;8.80;99.90;;;;;;5066975;28;20202;-84
2021/12/26 15:34:51;;;;;;;10.65;9.60;;;8.80;99.90;;;;;;5068647;28;20198;-84
2021/12/26 15:37:18;;;;;;;10.27;9.23;;;8.70;99.90;;;;;;5059236;28;20206;-84
2021/12/26 15:39:45;;;;;;;10.85;9.80;;;8.70;99.90;;;;;;5064553;28;20225;-84
2021/12/26 15:42:13;;;;;;;11.18;9.25;;;8.70;99.90;;;;;;5059415;28;20613;-85
2021/12/26 15:44:40;;;;;;;11.77;10.57;;;8.60;99.90;;;;;;5057711;28;20230;-84
2021/12/26 15:47:07;;;;;;;10.05;9.15;;;8.60;99.90;;;;;;5059861;28;20205;-84
2021/12/26 15:49:35;;;;;;;10.45;9.25;;;8.50;99.90;;;;;;5074148;28;20237;-85
2021/12/26 15:52:04;;;;;;;10.07;8.93;;;8.50;99.90;;;;;;5058713;28;20209;-86
2021/12/26 15:54:30;;;;;;;9.18;8.25;;;8.50;99.90;;;;;;5059516;28;20201;-84
2021/12/26 15:56:57;;;;;;;10.57;7.53;;;8.50;99.90;;;;;;5059960;28;20327;-84
2021/12/26 15:59:28;;;;;;;11.00;9.10;;;8.50;99.90;;;;;;5057416;28;20218;-85
2021/12/26 16:01:55;;;;;;;8.57;7.57;;;8.40;99.90;;;;;;5048339;28;20223;-85
2021/12/26 16:07:07;;;;;;;9.10;8.35;;;8.40;99.90;;;;;;5072397;28;20244;-84
2021/12/26 16:09:33;;;;;;;9.07;8.18;;;8.40;99.90;;;;;;5087930;28;20278;-84
2021/12/26 16:12:00;;;;;;;10.20;8.32;;;8.40;99.90;;;;;;5068408;28;20205;-85
2021/12/26 16:14:30;;;;;;;10.93;9.65;;;8.30;99.90;;;;;;5058872;28;20198;-84
2021/12/26 16:16:56;;;;;;;8.90;7.95;;;8.30;99.90;;;;;;5049181;28;20205;-85
2021/12/26 16:19:23;;;;;;;9.35;7.78;;;8.20;99.90;;;;;;5056352;28;20690;-84
2021/12/26 16:21:50;;;;;;;11.57;10.52;;;8.20;99.90;;;;;;5068054;28;20205;-85
2021/12/26 16:24:17;;;;;;;10.75;9.32;;;8.20;99.90;;;;;;5060852;28;20313;-83
2021/12/26 16:26:44;;;;;;;9.95;9.05;;;8.20;99.90;;;;;;5059793;28;20671;-84
2021/12/26 16:29:13;;;;;;;10.02;8.13;;;8.20;99.90;;;;;;5062343;28;20218;-85
2021/12/26 16:31:41;;;;;;;10.52;9.35;;;8.20;99.90;;;;;;5048125;28;20217;-85
2021/12/26 16:34:08;;;;;;;10.88;9.23;;;8.20;99.90;;;;;;5051013;28;20220;-85
2021/12/26 16:36:34;;;;;;;8.77;7.88;;;8.30;99.90;;;;;;5054845;28;20218;-85
2021/12/26 16:39:01;;;;;;;9.05;8.00;;;8.20;99.90;;;;;;5040423;28;20237;-85
2021/12/26 16:41:28;;;;;;;10.05;9.15;;;8.20;99.90;;;;;;5034379;28;20206;-86
2021/12/26 16:43:55;;;;;;;9.80;8.90;;;8.20;99.90;;;;;;5046919;28;20252;-84